KSMO

Santa Monica Municipal Airport

Santa Monica, California, USA
METAR KSMO 162151Z 25007KT 10SM CLR 19/11 A3012 RMK AO2 SLP197 T01940106
Observed Flight Rules
Dec-16 @ 21:51 UTC (60 minutes ago) Visual Flight Rules
Wind Visibility Clouds
250° at 7 knots 10 miles
  • Clear skies
Temperatures Readings
Current 19°C / 66°F
Dewpoint 11°C / 52°F
Humidity 60%
Altimeter 30.12" Hg
Pressure 1019.7 hPa
Elevation 57
METAR KSMO 162151Z 25007KT 10SM CLR 19/11 A3012 RMK AO2 SLP197 T01940106
Observed Flight Rules
Dec-16 @ 21:51 UTC
(60 minutes ago)
VFR
Wind Visibility
250° at 7 knots 10 miles
Clouds
  • Clear skies
Temperature Dewpoint
19°C / 66°F 11°C / 52°F
Humidity Altimeter Pressure
60% 30.12" Hg 1019.7 hPa